Time;durP1;ratioP1;P1;durP2;ratioP2;P2;SDS_P1;SDS_P2;PMS_P1;PMS_P2;Temp;Humidity;BMP_temperature;BMP_pressure;BME280_temperature;BME280_humidity;BME280_pressure;Samples;Min_cycle;Max_cycle;Signal;HPM_P1;HPM_P2
2022/05/02 00:02:08;;;;;;;7.55;4.60;;;;;;;12.70;70.38;98858.13;5054673;28;20492;-67
2022/05/02 00:04:52;;;;;;;7.25;4.60;;;;;;;12.47;71.70;98857.25;5053631;28;20033;-67
2022/05/02 00:07:37;;;;;;;6.60;4.38;;;;;;;12.40;72.16;98851.63;5054748;28;20064;-68
2022/05/02 00:10:22;;;;;;;6.20;4.50;;;;;;;12.18;71.84;98859.31;5053783;28;20063;-68
2022/05/02 00:13:09;;;;;;;6.32;4.03;;;;;;;12.08;71.85;98858.31;5052510;28;20033;-67
2022/05/02 00:15:54;;;;;;;5.45;3.72;;;;;;;11.90;72.48;98858.69;5053396;28;20090;-67
2022/05/02 00:18:38;;;;;;;4.93;3.60;;;;;;;11.42;73.13;98854.22;5054356;28;20033;-68
2022/05/02 00:21:23;;;;;;;5.70;3.85;;;;;;;11.34;72.26;98860.00;5049517;28;20087;-67
2022/05/02 00:24:09;;;;;;;6.47;4.15;;;;;;;11.49;70.90;98857.25;5053852;28;20108;-69
2022/05/02 00:26:53;;;;;;;4.82;3.10;;;;;;;11.65;70.45;98844.69;5054259;28;20118;-68
2022/05/02 00:29:38;;;;;;;5.78;3.17;;;;;;;11.66;70.44;98856.03;5052961;28;20064;-68
2022/05/02 00:32:22;;;;;;;5.47;2.90;;;;;;;11.65;70.23;98851.75;5054588;28;20103;-68
2022/05/02 00:35:09;;;;;;;4.45;3.15;;;;;;;11.72;68.82;98854.78;5039286;28;20037;-68
2022/05/02 00:37:54;;;;;;;4.80;3.22;;;;;;;11.32;69.83;98856.66;5053499;28;20044;-69
2022/05/02 00:40:38;;;;;;;5.22;3.55;;;;;;;11.10;72.08;98858.13;5054098;28;20045;-68
2022/05/02 00:43:23;;;;;;;6.60;4.05;;;;;;;11.01;73.09;98858.78;5054137;28;20048;-69
2022/05/02 00:46:23;;;;;;;8.48;5.07;;;;;;;10.57;76.43;98862.56;5054087;28;20041;-68
2022/05/02 00:49:07;;;;;;;8.93;5.60;;;;;;;10.12;82.50;98860.22;5053590;28;20049;-68
2022/05/02 00:51:52;;;;;;;9.57;5.88;;;;;;;9.88;85.84;98860.88;5066172;28;20052;-67
2022/05/02 00:54:40;;;;;;;10.30;6.45;;;;;;;9.77;87.72;98852.88;5053471;28;20488;-67
2022/05/02 00:57:25;;;;;;;8.82;5.80;;;;;;;9.76;87.98;98848.59;5052364;28;20036;-68
2022/05/02 01:00:10;;;;;;;10.60;7.55;;;;;;;9.84;87.45;98855.00;5053589;28;20041;-67
2022/05/02 01:02:55;;;;;;;9.63;7.13;;;;;;;9.94;86.24;98857.84;5052252;28;20553;-68
2022/05/02 01:08:45;;;;;;;9.68;6.70;;;;;;;10.20;84.03;98854.50;5053417;28;20103;-68
2022/05/02 01:11:30;;;;;;;11.85;6.72;;;;;;;10.05;85.56;98859.78;5053182;28;20037;-68
2022/05/02 01:14:15;;;;;;;9.80;6.80;;;;;;;10.04;85.33;98858.09;5038483;28;20044;-67
2022/05/02 01:17:01;;;;;;;11.98;6.38;;;;;;;10.20;84.38;98857.94;5053417;28;20048;-68
2022/05/02 01:19:47;;;;;;;8.88;5.70;;;;;;;10.55;82.82;98856.56;5052907;28;20099;-67
2022/05/02 01:22:33;;;;;;;7.63;5.28;;;;;;;10.83;81.06;98859.09;5053663;28;20041;-67
2022/05/02 01:25:17;;;;;;;8.07;5.38;;;;;;;11.14;79.20;98848.28;5052039;28;20040;-67
2022/05/02 01:28:02;;;;;;;7.85;5.55;;;;;;;11.26;78.83;98849.22;5038067;28;20045;-68
2022/05/02 01:30:46;;;;;;;7.60;5.25;;;;;;;10.98;79.19;98854.59;5053006;28;20045;-68
2022/05/02 01:33:31;;;;;;;9.25;5.85;;;;;;;10.67;80.59;98851.47;5053039;28;20049;-68
2022/05/02 01:36:17;;;;;;;10.43;6.72;;;;;;;10.39;82.76;98854.13;5053414;28;20044;-68
2022/05/02 01:39:01;;;;;;;10.75;6.10;;;;;;;10.28;83.49;98857.44;5053126;28;20090;-68
2022/05/02 01:41:46;;;;;;;12.50;6.78;;;;;;;10.38;83.39;98849.81;5066402;28;20044;-68
2022/05/02 01:44:32;;;;;;;8.48;5.65;;;;;;;10.69;81.14;98849.56;5052952;28;20036;-67
2022/05/02 01:47:16;;;;;;;8.38;5.20;;;;;;;10.76;79.98;98842.13;5052901;28;20427;-68
2022/05/02 01:50:02;;;;;;;6.90;4.72;;;;;;;10.74;79.31;98844.84;5052006;28;20430;-68
2022/05/02 01:52:46;;;;;;;8.57;5.38;;;;;;;10.69;80.20;98847.78;5053105;28;20048;-68
2022/05/02 01:55:31;;;;;;;9.40;5.97;;;;;;;10.64;80.21;98846.44;5051765;28;20048;-67
2022/05/02 01:58:16;;;;;;;9.50;5.68;;;;;;;10.46;81.37;98842.31;5052814;28;20392;-68
2022/05/02 02:01:01;;;;;;;8.30;5.10;;;;;;;10.49;81.45;98837.81;5053013;28;20049;-68
2022/05/02 02:03:46;;;;;;;6.72;4.70;;;;;;;10.45;80.08;98837.13;5052724;28;20053;-67
2022/05/02 02:06:30;;;;;;;6.85;4.68;;;;;;;10.62;79.50;98841.28;5051582;28;20032;-67
2022/05/02 02:09:15;;;;;;;7.15;4.72;;;;;;;10.61;79.01;98834.34;5052699;28;20047;-67
2022/05/02 02:11:59;;;;;;;7.10;4.97;;;;;;;10.56;79.33;98839.91;5052599;28;20033;-68
2022/05/02 02:14:44;;;;;;;7.45;5.00;;;;;;;10.64;78.56;98834.16;5051478;28;20041;-69
2022/05/02 02:17:29;;;;;;;8.68;5.00;;;;;;;10.69;78.05;98839.91;5052551;28;20040;-67
2022/05/02 02:20:13;;;;;;;7.40;4.85;;;;;;;10.59;78.72;98839.69;5052238;28;20099;-68
2022/05/02 02:22:59;;;;;;;7.82;5.63;;;;;;;10.74;77.81;98838.78;5051889;28;20036;-68
2022/05/02 02:25:44;;;;;;;7.57;4.90;;;;;;;10.67;77.46;98839.22;5052532;28;20040;-67
2022/05/02 02:28:29;;;;;;;7.68;4.68;;;;;;;10.71;76.91;98826.72;5054528;28;20049;-67
2022/05/02 02:31:13;;;;;;;6.15;4.18;;;;;;;10.62;76.93;98829.97;5054755;28;20041;-68
2022/05/02 02:33:58;;;;;;;7.80;4.50;;;;;;;10.68;77.07;98834.78;5037241;28;20033;-67
2022/05/02 02:36:43;;;;;;;8.50;4.85;;;;;;;10.72;76.71;98829.22;5053286;28;20041;-68
2022/05/02 02:39:28;;;;;;;6.90;4.78;;;;;;;10.82;76.69;98828.63;5056510;28;20040;-66
2022/05/02 02:42:12;;;;;;;7.05;4.80;;;;;;;10.43;78.13;98825.94;5043589;28;20365;-68
2022/05/02 02:44:57;;;;;;;6.80;4.47;;;;;;;10.27;79.29;98826.09;5053291;28;20036;-66
2022/05/02 02:47:44;;;;;;;7.65;4.70;;;;;;;10.06;80.23;98837.06;5037408;28;20037;-68
2022/05/02 02:50:29;;;;;;;6.45;4.68;;;;;;;9.98;80.33;98832.34;5051116;28;20083;-67
2022/05/02 02:53:13;;;;;;;8.48;4.63;;;;;;;10.29;78.53;98829.47;5051274;28;20216;-67
2022/05/02 02:55:59;;;;;;;8.07;4.35;;;;;;;10.22;78.27;98831.66;5052171;28;20522;-67
2022/05/02 02:58:43;;;;;;;6.28;4.75;;;;;;;10.26;77.21;98829.69;5050799;28;20033;-67
2022/05/02 03:01:28;;;;;;;8.02;4.95;;;;;;;10.35;76.56;98823.81;5048561;28;20118;-67
2022/05/02 03:07:17;;;;;;;8.18;4.80;;;;;;;10.65;73.61;98832.38;5065128;28;20542;-67
2022/05/02 03:10:02;;;;;;;6.07;4.18;;;;;;;10.49;74.36;98833.41;5065110;28;20033;-66
2022/05/02 03:12:47;;;;;;;5.72;4.03;;;;;;;10.52;74.06;98832.38;5035747;28;20460;-68
2022/05/02 03:15:33;;;;;;;6.60;4.30;;;;;;;10.43;74.45;98831.19;5051370;28;20606;-67
2022/05/02 03:18:18;;;;;;;8.10;4.93;;;;;;;10.43;74.57;98825.94;5050864;28;20036;-68
2022/05/02 03:21:03;;;;;;;6.25;4.32;;;;;;;10.26;74.82;98827.91;5050724;28;20045;-68
2022/05/02 03:23:48;;;;;;;6.03;3.85;;;;;;;10.75;81.35;98820.34;5050943;28;20069;-68
2022/05/02 03:26:33;;;;;;;5.55;4.10;;;;;;;10.66;74.46;98826.19;5050742;28;20047;-66
2022/05/02 03:29:17;;;;;;;7.85;4.47;;;;;;;10.21;75.92;98822.13;5051312;28;20044;-68
2022/05/02 03:32:02;;;;;;;8.77;5.28;;;;;;;10.00;77.36;98832.22;5036796;28;20044;-68
2022/05/02 03:34:47;;;;;;;6.78;4.68;;;;;;;10.08;77.07;98822.94;5038118;28;20044;-68
2022/05/02 03:37:31;;;;;;;7.43;4.43;;;;;;;10.29;75.79;98813.75;5054322;28;20033;-68
2022/05/02 03:40:16;;;;;;;7.20;3.95;;;;;;;10.44;74.27;98820.59;5054161;28;20045;-67
2022/05/02 03:43:01;;;;;;;8.15;5.00;;;;;;;10.61;73.40;98823.88;5055240;28;20041;-68
2022/05/02 03:45:46;;;;;;;7.50;4.80;;;;;;;10.22;75.82;98827.25;5054539;28;20052;-68
2022/05/02 03:48:30;;;;;;;7.05;4.82;;;;;;;10.64;75.13;98830.72;5056043;28;20044;-68
2022/05/02 03:51:16;;;;;;;8.23;4.70;;;;;;;10.65;74.22;98825.34;5054489;28;20037;-67
2022/05/02 03:54:01;;;;;;;6.43;4.57;;;;;;;10.20;76.45;98839.59;5040040;28;20037;-68
2022/05/02 03:56:45;;;;;;;6.55;5.03;;;;;;;10.00;77.70;98835.69;5055148;28;20033;-68
2022/05/02 03:59:30;;;;;;;9.77;4.72;;;;;;;10.13;77.25;98827.88;5055144;28;20037;-67
2022/05/02 04:02:14;;;;;;;8.40;4.85;;;;;;;10.27;76.99;98833.97;5053518;28;20049;-66
2022/05/02 04:04:59;;;;;;;7.18;4.80;;;;;;;10.58;75.34;98826.72;5054962;28;20041;-68
2022/05/02 04:07:43;;;;;;;6.10;4.50;;;;;;;10.59;75.70;98823.97;5054978;28;20037;-68
2022/05/02 04:10:28;;;;;;;8.82;5.90;;;;;;;10.91;75.23;98822.72;5054748;28;20127;-68
2022/05/02 04:13:13;;;;;;;7.88;4.95;;;;;;;10.86;74.82;98819.59;5053807;28;20472;-67
2022/05/02 04:15:57;;;;;;;8.75;5.05;;;;;;;10.69;75.93;98813.72;5053423;28;20136;-68
2022/05/02 04:18:43;;;;;;;7.63;5.00;;;;;;;10.54;76.65;98835.72;5054957;28;20037;-67
2022/05/02 04:21:27;;;;;;;6.95;4.97;;;;;;;10.54;76.37;98833.09;5054494;28;20075;-67
2022/05/02 04:24:12;;;;;;;10.48;5.65;;;;;;;10.54;77.28;98840.97;5060251;28;20037;-69
2022/05/02 04:26:57;;;;;;;6.43;4.78;;;;;;;11.23;88.12;98847.63;5063550;28;20123;-67
2022/05/02 04:29:42;;;;;;;8.70;6.00;;;;;;;11.19;77.38;98849.66;5063777;28;20037;-65
2022/05/02 04:32:27;;;;;;;8.10;5.22;;;;;;;10.93;76.71;98839.19;5055236;28;20460;-66
2022/05/02 04:35:11;;;;;;;7.53;5.25;;;;;;;10.44;78.68;98833.69;5053214;28;20507;-63
2022/05/02 04:37:57;;;;;;;7.03;4.85;;;;;;;10.99;75.81;98830.06;5054858;28;20067;-70
2022/05/02 04:40:42;;;;;;;6.78;4.65;;;;;;;11.56;72.52;98838.34;5081647;28;20064;-67
2022/05/02 04:43:26;;;;;;;9.73;5.18;;;;;;;11.68;72.06;98839.25;5054473;28;20037;-66
2022/05/02 04:46:11;;;;;;;9.20;5.10;;;;;;;11.89;69.59;98837.78;5052601;28;20041;-67
2022/05/02 04:48:56;;;;;;;6.30;4.50;;;;;;;12.06;69.84;98842.63;5067020;28;20041;-66
2022/05/02 04:51:41;;;;;;;6.72;4.60;;;;;;;11.88;70.53;98833.50;5054327;28;20037;-67
2022/05/02 04:54:26;;;;;;;9.73;5.00;;;;;;;11.92;71.49;98837.56;5066892;28;20037;-68
2022/05/02 04:57:11;;;;;;;7.70;5.00;;;;;;;11.87;71.70;98835.28;5025011;28;20037;-68
2022/05/02 04:59:56;;;;;;;8.10;5.30;;;;;;;11.98;71.88;98837.09;5053910;28;20451;-67
2022/05/02 05:02:41;;;;;;;8.15;5.03;;;;;;;12.40;70.29;98841.13;5052016;28;20041;-65
2022/05/02 05:05:26;;;;;;;9.27;5.68;;;;;;;12.56;70.25;98839.03;5065692;28;20056;-65
2022/05/02 05:08:11;;;;;;;9.43;6.18;;;;;;;12.71;69.81;98843.22;5037986;28;20033;-68
2022/05/02 05:11:10;;;;;;;9.65;6.65;;;;;;;12.75;69.85;98844.63;5052320;28;20041;-72
2022/05/02 05:17:41;;;;;;;7.78;4.85;;;;;;;12.12;72.73;98849.28;5053311;28;20048;-69
2022/05/02 05:20:44;;;;;;;;;;;;;;;12.19;72.22;98841.78;5052908;28;20207;-72
2022/05/02 05:23:46;;;;;;;8.68;6.05;;;;;;;12.50;70.44;98836.00;5053475;28;20011;-71
2022/05/02 05:26:36;;;;;;;8.80;5.70;;;;;;;12.82;69.03;98832.72;5053489;28;20036;-67
2022/05/02 05:29:46;;;;;;;11.15;6.43;;;;;;;13.15;66.46;98833.66;5051477;28;20090;-69
2022/05/02 05:33:08;;;;;;;7.80;5.40;;;;;;;13.25;68.08;98836.41;5023609;28;20032;-70
2022/05/02 05:36:01;;;;;;;8.30;5.25;;;;;;;13.43;67.28;98839.38;5052099;28;20033;-70
2022/05/02 05:38:49;;;;;;;6.70;5.32;;;;;;;13.17;68.28;98842.28;5050999;28;20041;-69
2022/05/02 05:41:53;;;;;;;8.18;5.80;;;;;;;13.59;67.47;98840.00;5052191;28;20079;-68
2022/05/02 05:44:52;;;;;;;9.98;6.20;;;;;;;13.63;67.37;98844.03;5049340;28;20055;-70
2022/05/02 05:48:15;;;;;;;9.90;5.88;;;;;;;13.88;66.39;98855.22;5050529;28;20044;-69
2022/05/02 05:51:06;;;;;;;11.50;7.53;;;;;;;13.40;67.37;98844.88;5065504;28;20387;-67
2022/05/02 05:54:06;;;;;;;;;;;;;;;12.94;70.03;98851.97;5033370;28;20121;-70
2022/05/02 05:57:00;;;;;;;12.15;7.78;;;;;;;13.45;68.90;98852.41;5040908;28;20378;-57
2022/05/02 06:00:05;;;;;;;11.98;7.80;;;;;;;13.56;67.13;98854.25;5052187;28;20118;-64
2022/05/02 06:03:15;;;;;;;10.57;7.32;;;;;;;13.45;66.73;98856.88;5053442;28;20102;-69
2022/05/02 06:06:00;;;;;;;9.20;6.70;;;;;;;13.97;64.89;98856.28;5049202;28;20068;-69
2022/05/02 06:08:48;;;;;;;10.70;7.03;;;;;;;14.21;64.02;98844.69;5049724;28;20040;-69
2022/05/02 06:11:35;;;;;;;9.77;6.90;;;;;;;15.04;62.31;98846.59;5051853;28;20037;-67
2022/05/02 06:14:25;;;;;;;11.57;7.38;;;;;;;15.47;61.73;98843.84;5051362;28;20036;-68
2022/05/02 06:20:15;;;;;;;10.82;6.90;;;;;;;15.24;60.25;98846.69;5045908;28;20156;-66
2022/05/02 06:23:02;;;;;;;14.82;8.50;;;;;;;15.48;60.21;98838.44;5032394;28;20034;-69
2022/05/02 06:25:53;;;;;;;11.85;7.28;;;;;;;15.66;58.15;98844.84;5043987;28;20037;-69
2022/05/02 06:28:42;;;;;;;;;;;;;;;15.93;57.42;98838.91;5052588;28;20045;-68
2022/05/02 06:31:29;;;;;;;11.23;7.13;;;;;;;15.80;53.03;98836.53;5051511;28;19917;-68
2022/05/02 06:34:18;;;;;;;12.02;6.65;;;;;;;15.91;55.06;98845.31;5051527;28;20067;-67
2022/05/02 06:37:18;;;;;;;10.77;7.05;;;;;;;16.50;57.94;98835.56;5052194;28;20095;-70
2022/05/02 06:40:07;;;;;;;11.70;7.22;;;;;;;16.49;58.43;98833.91;5050165;28;20037;-70
2022/05/02 06:43:16;;;;;;;10.40;6.80;;;;;;;16.48;58.59;98834.84;5052127;28;20037;-69
2022/05/02 06:46:11;;;;;;;9.93;6.70;;;;;;;16.81;57.13;98838.97;5051579;28;20056;-69
2022/05/02 06:49:01;;;;;;;10.65;6.80;;;;;;;17.01;57.18;98829.16;5051998;28;20434;-68
2022/05/02 06:51:51;;;;;;;10.55;6.53;;;;;;;17.51;55.24;98836.88;5052492;28;20041;-68
2022/05/02 06:55:01;;;;;;;10.13;7.10;;;;;;;17.56;54.90;98840.75;5051596;28;20053;-66
2022/05/02 06:58:21;;;;;;;12.30;7.75;;;;;;;17.44;55.03;98845.44;5051717;28;20116;-69
2022/05/02 07:01:08;;;;;;;11.38;7.05;;;;;;;17.67;54.55;98839.72;5064865;28;20064;-69
2022/05/02 07:04:02;;;;;;;10.25;6.78;;;;;;;17.28;56.33;98840.78;5052039;28;20044;-69
2022/05/02 07:07:18;;;;;;;9.70;6.60;;;;;;;17.63;55.17;98848.13;5050634;28;20048;-71
2022/05/02 07:10:06;;;;;;;10.77;7.20;;;;;;;18.25;53.45;98851.88;5055094;28;20067;-69
2022/05/02 07:13:06;;;;;;;12.50;6.93;;;;;;;18.11;53.05;98846.09;5055622;28;20045;-68
2022/05/02 07:15:56;;;;;;;10.90;6.63;;;;;;;17.97;53.74;98850.94;5055535;28;20124;-68
2022/05/02 07:19:15;;;;;;;10.23;6.30;;;;;;;18.31;52.34;98849.41;5054145;28;20049;-68
2022/05/02 07:22:07;;;;;;;9.57;6.10;;;;;;;18.39;51.44;98851.31;5055349;28;20047;-67
2022/05/02 07:25:20;;;;;;;7.88;5.57;;;;;;;18.57;51.12;98858.41;5068778;28;20053;-69
2022/05/02 07:28:30;;;;;;;10.35;6.57;;;;;;;18.61;50.64;98853.59;5054606;28;20040;-69
2022/05/02 07:31:24;;;;;;;11.27;6.55;;;;;;;19.19;49.57;98846.84;5055265;28;20098;-69
2022/05/02 07:34:12;;;;;;;12.77;6.60;;;;;;;19.31;49.25;98849.19;5055122;28;20476;-69
2022/05/02 07:36:57;;;;;;;7.85;5.03;;;;;;;19.63;47.98;98850.31;5055012;28;20079;-69
2022/05/02 07:39:45;;;;;;;8.27;5.38;;;;;;;20.29;46.23;98854.91;5026062;28;20045;-69
2022/05/02 07:42:30;;;;;;;11.57;6.38;;;;;;;20.03;46.60;98847.91;5054496;28;20355;-68
2022/05/02 07:45:17;;;;;;;12.82;5.47;;;;;;;18.96;47.89;98846.53;5055377;28;20139;-68
2022/05/02 07:48:04;;;;;;;9.90;5.82;;;;;;;19.50;46.01;98840.16;5059592;28;20044;-68
2022/05/02 07:50:50;;;;;;;6.85;4.93;;;;;;;20.32;45.31;98845.75;5060228;28;20115;-67
2022/05/02 07:53:39;;;;;;;13.20;5.75;;;;;;;20.25;44.71;98839.47;5055891;28;20040;-67
2022/05/02 07:56:26;;;;;;;13.77;5.68;;;;;;;20.51;45.77;98841.09;5053737;28;20033;-68
2022/05/02 07:59:15;;;;;;;11.50;6.97;;;;;;;21.01;44.60;98844.50;5048543;28;20029;-67
2022/05/02 08:02:00;;;;;;;10.75;6.25;;;;;;;21.53;43.42;98839.63;5062077;28;20040;-67
2022/05/02 08:04:47;;;;;;;8.82;5.10;;;;;;;20.81;44.36;98849.34;5083427;28;20032;-66
2022/05/02 08:07:41;;;;;;;9.82;5.57;;;;;;;21.86;42.63;98843.97;5054448;28;20393;-67
2022/05/02 08:10:55;;;;;;;9.23;5.50;;;;;;;22.76;40.02;98847.91;5063891;28;20037;-67
2022/05/02 08:13:47;;;;;;;9.45;5.32;;;;;;;22.50;40.60;98841.97;5045048;28;20041;-53
2022/05/02 08:16:36;;;;;;;6.30;4.45;;;;;;;23.38;39.41;98840.50;5055011;28;20450;-52
2022/05/02 08:19:32;;;;;;;8.05;5.50;;;;;;;21.69;42.76;98843.19;5053414;28;20041;-53
2022/05/02 08:29:29;;;;;;;9.63;4.53;;;;;;;23.60;36.57;98843.22;5053121;28;20052;-69
2022/05/02 08:32:32;;;;;;;14.77;4.82;;;;;;;23.61;35.55;98838.72;5047179;28;20037;-68
2022/05/02 08:35:26;;;;;;;9.02;4.38;;;;;;;22.94;33.52;98844.88;5049366;28;20040;-68
2022/05/02 08:38:23;;;;;;;5.18;2.85;;;;;;;23.28;32.60;98839.97;5036716;28;20494;-69
2022/05/02 08:41:08;;;;;;;4.43;2.95;;;;;;;22.16;33.03;98840.59;5052953;28;20052;-67
2022/05/02 08:44:26;;;;;;;3.85;2.55;;;;;;;22.46;33.04;98845.16;5050087;28;20052;-66
2022/05/02 08:47:14;;;;;;;4.85;2.80;;;;;;;22.93;32.09;98835.19;5050558;28;20036;-66
2022/05/02 08:50:21;;;;;;;4.28;2.72;;;;;;;23.57;31.71;98834.75;5052762;28;20068;-67
2022/05/02 08:53:26;;;;;;;4.97;3.03;;;;;;;23.95;31.31;98839.06;5052809;28;20538;-66
2022/05/02 08:56:29;;;;;;;4.55;2.60;;;;;;;23.49;31.86;98831.19;5052923;28;20384;-67
2022/05/02 08:59:33;;;;;;;4.55;2.85;;;;;;;24.08;31.25;98831.16;5053054;28;20044;-68
2022/05/02 09:02:32;;;;;;;5.47;2.70;;;;;;;23.86;31.70;98836.50;5052405;28;20041;-67
2022/05/02 09:05:40;;;;;;;5.78;2.53;;;;;;;24.38;30.68;98827.53;5054114;28;20037;-68
2022/05/02 09:08:49;;;;;;;2.90;2.20;;;;;;;24.21;31.17;98832.31;5053109;28;20440;-66
2022/05/02 09:12:22;;;;;;;3.58;2.30;;;;;;;24.32;31.00;98826.44;5053663;28;20365;-67
2022/05/02 09:15:13;;;;;;;2.50;2.00;;;;;;;24.10;30.45;98821.13;5011890;28;20053;-65
2022/05/02 09:18:11;;;;;;;4.70;2.17;;;;;;;24.80;30.01;98824.94;5033802;28;20041;-67
2022/05/02 09:21:14;;;;;;;8.80;2.85;;;;;;;24.00;30.98;98828.63;5033767;28;20416;-66
2022/05/02 09:24:04;;;;;;;4.50;2.63;;;;;;;24.94;30.42;98819.66;5033502;28;20037;-66
2022/05/02 09:27:11;;;;;;;6.97;2.80;;;;;;;24.77;30.50;98829.84;5033323;28;20042;-66
2022/05/02 09:30:04;;;;;;;8.88;2.30;;;;;;;24.67;29.77;98828.34;5032465;28;20511;-66
2022/05/02 09:33:03;;;;;;;4.80;2.50;;;;;;;24.40;30.28;98820.13;5032205;28;20782;-67
2022/05/02 09:35:59;;;;;;;6.40;2.80;;;;;;;24.70;30.25;98827.13;5033148;28;20038;-67
2022/05/02 09:38:51;;;;;;;3.38;2.50;;;;;;;24.79;29.23;98822.44;5018036;28;20086;-67
2022/05/02 09:42:02;;;;;;;4.45;2.50;;;;;;;25.92;27.92;98815.03;5033174;28;20045;-67
2022/05/02 09:52:02;;;;;;;4.38;2.88;;;;;;;24.20;29.10;98817.31;5050596;28;20048;-63
2022/05/02 09:58:09;;;;;;;6.57;2.42;;;;;;;25.42;28.37;98813.47;5051617;28;19927;-64
2022/05/02 10:01:07;;;;;;;4.55;2.88;;;;;;;24.38;29.18;98808.81;5037134;28;20037;-63
2022/05/02 10:03:58;;;;;;;7.90;2.97;;;;;;;24.88;29.07;98807.88;5052952;28;20422;-63
2022/05/02 10:06:53;;;;;;;5.63;3.53;;;;;;;25.00;29.73;98808.16;5052462;28;20037;-73
2022/05/02 10:09:56;;;;;;;8.75;5.38;;;;;;;24.37;30.67;98809.81;5032841;28;20192;-58
2022/05/02 10:13:10;;;;;;;6.55;4.20;;;;;;;24.30;32.03;98798.22;5032761;28;20041;-62
2022/05/02 10:16:30;;;;;;;4.25;3.20;;;;;;;25.50;29.40;98790.19;5063553;28;20057;-61
2022/05/02 10:19:38;;;;;;;6.13;3.05;;;;;;;26.16;28.30;98795.88;5063369;28;20036;-63
2022/05/02 10:22:30;;;;;;;7.97;3.30;;;;;;;28.34;26.23;98789.34;5020890;28;20199;-62
2022/05/02 10:25:29;;;;;;;4.90;3.40;;;;;;;26.75;27.45;98787.13;5050541;28;20033;-63
2022/05/02 10:28:48;;;;;;;4.18;2.78;;;;;;;27.28;27.47;98787.97;5077130;28;20037;-62
2022/05/02 10:31:35;;;;;;;6.07;2.75;;;;;;;26.92;27.17;98780.25;5050495;28;20479;-64
2022/05/02 10:34:24;;;;;;;4.72;2.47;;;;;;;26.83;27.22;98794.13;5048573;28;20041;-63
2022/05/02 10:37:11;;;;;;;3.90;2.10;;;;;;;27.62;26.47;98775.16;5077411;28;20045;-62
2022/05/02 10:40:07;;;;;;;3.60;1.80;;;;;;;27.91;25.56;98775.59;5061383;28;20036;-63
2022/05/02 10:42:55;;;;;;;3.88;2.05;;;;;;;27.31;25.24;98766.03;5050366;28;20041;-62
2022/05/02 10:45:41;;;;;;;2.85;2.08;;;;;;;26.24;25.49;98784.94;5081342;28;20041;-62
2022/05/02 10:48:44;;;;;;;3.33;2.42;;;;;;;26.91;25.63;98775.09;5054509;28;20045;-62
2022/05/02 10:51:53;;;;;;;3.88;2.63;;;;;;;27.63;25.89;98767.94;5054094;28;20468;-61
2022/05/02 10:54:49;;;;;;;4.13;2.08;;;;;;;27.54;25.72;98761.97;5063823;28;20029;-61
2022/05/02 10:57:47;;;;;;;4.63;2.13;;;;;;;27.78;25.53;98759.56;5065548;28;20045;-60
2022/05/02 11:00:33;;;;;;;3.85;2.10;;;;;;;27.99;25.46;98754.84;5067397;28;20494;-61
2022/05/02 11:03:42;;;;;;;5.22;2.00;;;;;;;28.97;23.94;98759.69;5054256;28;20061;-62
2022/05/02 11:06:34;;;;;;;3.95;1.92;;;;;;;28.13;24.90;98755.56;5053342;28;20048;-61
2022/05/02 11:09:32;;;;;;;3.63;1.98;;;;;;;27.87;25.30;98752.03;5051744;28;20192;-61
2022/05/02 11:12:21;;;;;;;2.92;2.05;;;;;;;28.12;24.97;98749.34;5052351;28;20043;-61
2022/05/02 11:15:09;;;;;;;3.55;1.92;;;;;;;28.55;23.77;98746.88;5053866;28;20044;-62
2022/05/02 11:18:08;;;;;;;5.03;1.77;;;;;;;28.70;23.45;98742.97;5052609;28;20041;-59
2022/05/02 11:21:18;;;;;;;2.90;2.00;;;;;;;28.56;23.67;98743.16;5054057;28;20037;-61
2022/05/02 11:24:49;;;;;;;2.90;1.63;;;;;;;28.06;23.40;98738.66;5050643;28;20048;-60
2022/05/02 11:27:57;;;;;;;3.88;1.80;;;;;;;29.30;22.92;98732.50;5047491;28;20116;-66
2022/05/02 11:30:50;;;;;;;3.38;2.13;;;;;;;28.65;22.92;98736.41;5018912;28;20477;-61
2022/05/02 11:33:42;;;;;;;3.20;2.35;;;;;;;26.71;24.35;98743.75;5047288;28;20099;-62
2022/05/02 11:36:34;;;;;;;2.90;2.15;;;;;;;27.27;25.06;98729.88;5047540;28;20038;-64
2022/05/02 11:39:55;;;;;;;4.47;2.00;;;;;;;27.33;23.29;98726.31;5033230;28;20041;-63
2022/05/02 11:42:45;;;;;;;5.18;1.80;;;;;;;27.65;22.21;98720.94;5034039;28;20458;-63
2022/05/02 11:45:43;;;;;;;6.35;2.03;;;;;;;28.82;21.88;98716.09;5033108;28;20041;-60
2022/05/02 11:48:49;;;;;;;2.88;1.90;;;;;;;27.23;22.96;98724.09;5034218;28;20126;-60
2022/05/02 11:51:53;;;;;;;3.42;2.00;;;;;;;27.56;23.77;98719.56;5034352;28;20045;-63
2022/05/02 11:54:42;;;;;;;3.42;1.67;;;;;;;27.73;23.37;98719.06;5030730;28;20840;-62
2022/05/02 11:57:35;;;;;;;3.15;1.90;;;;;;;27.20;24.03;98721.03;5053175;28;20037;-61
2022/05/02 12:00:29;;;;;;;2.83;1.70;;;;;;;27.66;23.53;98714.50;5065328;28;21539;-62
2022/05/02 12:03:18;;;;;;;4.85;2.20;;;;;;;27.96;22.53;98712.25;5052875;28;20664;-61
2022/05/02 12:06:08;;;;;;;2.45;1.67;;;;;;;27.75;22.47;98712.41;5052990;28;20407;-61
2022/05/02 12:08:54;;;;;;;3.22;1.85;;;;;;;27.60;22.76;98701.94;5038379;28;20037;-62
2022/05/02 12:11:54;;;;;;;3.25;1.40;;;;;;;28.47;21.57;98691.44;5052823;28;20033;-62
2022/05/02 12:14:40;;;;;;;2.90;1.98;;;;;;;27.73;22.71;98694.84;5050216;28;20435;-62
2022/05/02 12:17:24;;;;;;;2.50;1.77;;;;;;;28.14;21.89;98703.34;5052855;28;20053;-61
2022/05/02 12:20:40;;;;;;;3.17;1.70;;;;;;;28.15;21.94;98694.25;5081462;28;20307;-59
2022/05/02 12:23:31;;;;;;;1.73;1.45;;;;;;;28.59;24.42;98685.31;5036926;28;20478;-59
2022/05/02 12:26:23;;;;;;;2.35;1.52;;;;;;;28.49;22.18;98686.66;5053202;28;20098;-59
2022/05/02 12:29:19;;;;;;;3.83;1.70;;;;;;;28.57;22.41;98682.84;5051814;28;20040;-58
2022/05/02 12:32:07;;;;;;;2.63;1.60;;;;;;;27.94;22.42;98682.84;5062931;28;20033;-58
2022/05/02 12:34:55;;;;;;;3.67;1.50;;;;;;;29.51;21.50;98669.94;5052342;28;20033;-61
2022/05/02 12:37:44;;;;;;;2.03;1.50;;;;;;;29.33;21.69;98673.53;5051171;28;20036;-59
2022/05/02 12:40:29;;;;;;;2.30;1.52;;;;;;;28.71;21.03;98674.59;5051567;28;20033;-59
2022/05/02 12:43:29;;;;;;;2.13;1.50;;;;;;;28.63;21.10;98671.16;5051567;28;20048;-65
2022/05/02 12:46:16;;;;;;;3.00;1.67;;;;;;;27.49;22.56;98668.50;5053344;28;20044;-61
2022/05/02 12:49:06;;;;;;;2.63;1.80;;;;;;;25.74;23.73;98672.69;5051332;28;20120;-64
2022/05/02 12:51:53;;;;;;;2.80;1.60;;;;;;;25.80;24.52;98669.97;5066266;28;20052;-62
2022/05/02 12:54:48;;;;;;;2.25;1.60;;;;;;;24.24;24.87;98666.03;5053990;28;20047;-64
2022/05/02 13:01:01;;;;;;;3.20;1.33;;;;;;;25.49;24.03;98658.00;5045167;28;20044;-62
2022/05/02 13:03:56;;;;;;;2.50;1.40;;;;;;;26.18;23.70;98644.31;5039867;28;20050;-62
2022/05/02 13:06:43;;;;;;;2.83;1.60;;;;;;;24.89;24.52;98653.34;5044246;28;20046;-64
2022/05/02 13:09:37;;;;;;;3.65;1.60;;;;;;;25.20;24.12;98643.97;5047531;28;20045;-63
2022/05/02 13:12:23;;;;;;;2.92;1.80;;;;;;;25.48;24.07;98642.94;5049195;28;20053;-63
2022/05/02 13:15:09;;;;;;;2.30;1.58;;;;;;;24.96;23.39;98636.28;5051065;28;20042;-63
2022/05/02 13:18:03;;;;;;;2.40;1.60;;;;;;;26.08;22.69;98636.72;5049924;28;20065;-64
2022/05/02 13:21:04;;;;;;;2.72;1.42;;;;;;;27.54;21.62;98628.34;5033118;28;20072;-63
2022/05/02 13:23:50;;;;;;;2.17;1.48;;;;;;;25.66;23.67;98634.31;5033869;28;20129;-63
2022/05/02 13:26:55;;;;;;;5.30;1.70;;;;;;;23.57;25.70;98636.94;5034991;28;20060;-63
2022/05/02 13:30:07;;;;;;;3.83;1.70;;;;;;;23.41;26.08;98635.38;5036919;28;20435;-63
2022/05/02 13:33:03;;;;;;;2.72;1.73;;;;;;;23.54;26.28;98627.47;5033422;28;20033;-63
2022/05/02 13:35:49;;;;;;;2.95;1.63;;;;;;;22.98;26.82;98621.81;5033190;28;20049;-63
2022/05/02 13:38:46;;;;;;;2.33;1.50;;;;;;;23.40;26.81;98623.06;5046748;28;20362;-63
2022/05/02 13:42:00;;;;;;;3.80;2.00;;;;;;;23.21;26.61;98626.16;5033291;28;20128;-64
2022/05/02 13:44:56;;;;;;;2.28;1.40;;;;;;;22.79;26.40;98620.59;5033271;28;20041;-63
2022/05/02 13:47:58;;;;;;;2.72;1.80;;;;;;;22.14;26.62;98618.56;5045681;28;20072;-63
2022/05/02 13:51:05;;;;;;;4.13;1.65;;;;;;;22.52;26.36;98621.06;5045474;28;20484;-63
2022/05/02 13:53:57;;;;;;;2.38;1.40;;;;;;;22.91;26.01;98617.44;5032276;28;20041;-62
2022/05/02 13:56:49;;;;;;;3.78;1.60;;;;;;;22.87;25.75;98616.97;5032332;28;20072;-63
2022/05/02 13:59:49;;;;;;;2.33;1.60;;;;;;;22.84;24.83;98615.53;5045218;28;20052;-63
2022/05/02 14:03:06;;;;;;;2.13;1.45;;;;;;;23.14;24.18;98612.72;5032221;28;20469;-63
2022/05/02 14:08:39;;;;;;;5.35;1.40;;;;;;;22.59;25.09;98606.97;5045081;28;20045;-62